createdAt,value
2019-02-19T00:00:37.372Z,32.63
2019-02-19T00:03:06.674Z,35.73
2019-02-19T00:05:35.970Z,32.43
2019-02-19T00:08:05.290Z,33.80
2019-02-19T00:10:34.578Z,35.10
2019-02-19T00:13:03.887Z,40.53
2019-02-19T00:15:33.190Z,32.43
2019-02-19T00:18:02.499Z,32.67
2019-02-19T00:20:31.804Z,35.37
2019-02-19T00:23:01.125Z,31.10
2019-02-19T00:25:30.407Z,30.77
2019-02-19T00:27:59.718Z,35.37
2019-02-19T00:30:29.020Z,38.17
2019-02-19T00:32:58.327Z,33.53
2019-02-19T00:35:27.621Z,39.73
2019-02-19T00:37:56.935Z,31.37
2019-02-19T00:40:26.235Z,33.77
2019-02-19T00:42:55.544Z,30.43
2019-02-19T00:45:24.849Z,32.10
2019-02-19T00:47:54.154Z,35.87
2019-02-19T00:50:23.452Z,34.50
2019-02-19T00:52:52.758Z,36.20
2019-02-19T00:55:22.051Z,37.80
2019-02-19T00:57:51.452Z,37.07
2019-02-19T01:00:20.752Z,39.73
2019-02-19T01:02:50.066Z,39.43
2019-02-19T01:05:19.531Z,37.00
2019-02-19T01:07:49.107Z,41.03
2019-02-19T01:10:18.407Z,44.97
2019-02-19T01:12:47.719Z,38.43
2019-02-19T01:15:25.064Z,40.50
2019-02-19T01:17:48.019Z,40.57
2019-02-19T01:20:17.314Z,39.67
2019-02-19T01:22:46.623Z,35.43
2019-02-19T01:25:15.918Z,34.83
2019-02-19T01:27:45.232Z,38.60
2019-02-19T01:30:14.666Z,38.13
2019-02-19T01:32:43.975Z,37.40
2019-02-19T01:35:13.275Z,40.20
2019-02-19T01:37:42.661Z,37.87
2019-02-19T01:40:11.955Z,41.60
2019-02-19T01:42:41.266Z,40.80
2019-02-19T01:45:10.571Z,38.03
2019-02-19T01:47:39.895Z,35.60
2019-02-19T01:50:09.662Z,43.77
2019-02-19T01:52:38.967Z,39.77
2019-02-19T01:55:08.807Z,37.70
2019-02-19T01:57:38.102Z,38.93
2019-02-19T02:00:10.218Z,38.07
2019-02-19T02:02:39.515Z,34.23
2019-02-19T02:05:08.823Z,36.80
2019-02-19T02:07:38.126Z,38.87
2019-02-19T02:10:08.274Z,35.30
2019-02-19T02:12:37.569Z,38.57
2019-02-19T02:15:07.719Z,38.57
2019-02-19T02:17:37.011Z,39.43
2019-02-19T02:20:07.460Z,44.60
2019-02-19T02:22:36.758Z,51.23
2019-02-19T02:25:06.509Z,43.07
2019-02-19T02:27:35.807Z,47.53
2019-02-19T02:30:06.848Z,48.83
2019-02-19T02:32:37.117Z,46.00
2019-02-19T02:35:06.428Z,46.10
2019-02-19T02:37:35.727Z,48.83
2019-02-19T02:40:06.971Z,56.40
2019-02-19T02:42:36.266Z,51.50
2019-02-19T02:45:05.639Z,53.10
2019-02-19T02:47:34.954Z,51.23
2019-02-19T02:50:04.876Z,56.93
2019-02-19T02:52:34.177Z,54.70
2019-02-19T02:55:03.765Z,53.37
2019-02-19T02:57:33.065Z,55.57
2019-02-19T03:00:02.382Z,51.23
2019-02-19T03:02:32.815Z,58.90
2019-02-19T03:05:02.124Z,52.73
2019-02-19T03:07:33.056Z,50.13
2019-02-19T03:10:02.358Z,51.70
2019-02-19T03:12:32.740Z,54.93
2019-02-19T03:15:02.098Z,49.07
2019-02-19T03:17:31.400Z,54.27
2019-02-19T03:20:00.702Z,57.07
2019-02-19T03:22:30.021Z,55.43
2019-02-19T03:24:59.347Z,52.07
2019-02-19T03:27:28.651Z,51.93
2019-02-19T03:29:58.923Z,52.77
2019-02-19T03:32:28.228Z,52.00
2019-02-19T03:34:57.519Z,51.73
2019-02-19T03:37:26.826Z,54.13
2019-02-19T03:39:56.119Z,55.27
2019-02-19T03:42:25.426Z,48.70
2019-02-19T03:44:54.723Z,50.57
2019-02-19T03:47:24.029Z,56.00
2019-02-19T03:49:53.319Z,49.53
2019-02-19T03:52:22.638Z,54.90
2019-02-19T03:54:51.934Z,59.20
2019-02-19T03:57:21.240Z,54.63
2019-02-19T03:59:50.535Z,55.27
2019-02-19T04:02:19.841Z,47.40
2019-02-19T04:04:49.133Z,44.33
2019-02-19T04:07:18.449Z,51.40
2019-02-19T04:09:47.740Z,50.47
2019-02-19T04:12:17.048Z,53.77
2019-02-19T04:14:46.343Z,52.17
2019-02-19T04:17:15.657Z,53.53
2019-02-19T04:19:44.938Z,50.97
2019-02-19T04:22:14.251Z,52.33
2019-02-19T04:24:43.557Z,50.60
2019-02-19T04:27:12.867Z,51.30
2019-02-19T04:29:42.171Z,49.67
2019-02-19T04:32:11.494Z,52.10
2019-02-19T04:34:40.841Z,49.40
2019-02-19T04:37:10.146Z,47.63
2019-02-19T04:39:39.447Z,47.20
2019-02-19T04:42:08.750Z,45.83
2019-02-19T04:44:38.045Z,44.87
2019-02-19T04:47:07.372Z,40.80
2019-02-19T04:49:36.673Z,38.57
2019-02-19T04:52:05.989Z,35.10
2019-02-19T04:54:35.300Z,37.10
2019-02-19T04:57:04.595Z,37.43
2019-02-19T04:59:33.991Z,34.20
2019-02-19T05:02:03.283Z,34.23
2019-02-19T05:04:32.586Z,34.53
2019-02-19T05:07:01.891Z,39.53
2019-02-19T05:09:31.207Z,36.53
2019-02-19T05:12:00.499Z,36.70
2019-02-19T05:14:29.801Z,34.30
2019-02-19T05:17:00.066Z,35.37
2019-02-19T05:19:29.383Z,31.97
2019-02-19T05:21:58.676Z,34.00
2019-02-19T05:24:27.984Z,32.23
2019-02-19T05:26:57.278Z,35.50
2019-02-19T05:29:26.589Z,34.90
2019-02-19T05:31:55.998Z,33.10
2019-02-19T05:34:25.306Z,33.70
2019-02-19T05:36:54.612Z,37.57
2019-02-19T05:39:23.978Z,36.97
2019-02-19T05:41:53.284Z,35.23
2019-02-19T05:44:22.596Z,40.83
2019-02-19T05:46:51.892Z,40.00
2019-02-19T05:49:21.196Z,42.27
2019-02-19T05:51:50.491Z,37.40
2019-02-19T05:54:19.789Z,36.00
2019-02-19T05:56:49.091Z,37.73
2019-02-19T05:59:18.399Z,37.13
2019-02-19T06:01:47.698Z,41.10
2019-02-19T06:04:17.002Z,34.23
2019-02-19T06:06:46.303Z,36.23
2019-02-19T06:09:15.704Z,35.23
2019-02-19T06:11:45.009Z,33.87
2019-02-19T06:14:14.331Z,34.87
2019-02-19T06:16:43.633Z,37.07
2019-02-19T06:19:12.935Z,33.37
2019-02-19T06:21:42.243Z,28.53
2019-02-19T06:24:11.538Z,33.13
2019-02-19T06:26:40.929Z,27.00
2019-02-19T06:29:10.225Z,31.07
2019-02-19T06:31:39.535Z,32.70
2019-02-19T06:34:08.844Z,28.30
2019-02-19T06:36:38.131Z,26.97
2019-02-19T06:39:07.430Z,28.33
2019-02-19T06:41:36.746Z,24.03
2019-02-19T06:44:06.051Z,24.80
2019-02-19T06:46:36.425Z,29.10
2019-02-19T06:49:05.718Z,29.47
2019-02-19T06:51:35.027Z,28.80
2019-02-19T06:54:04.320Z,29.13
2019-02-19T06:56:33.631Z,28.07
2019-02-19T06:59:02.939Z,30.30
2019-02-19T07:01:33.895Z,31.10
2019-02-19T07:04:04.827Z,29.33
2019-02-19T07:06:34.148Z,25.57
2019-02-19T07:09:05.033Z,30.57
2019-02-19T07:11:34.342Z,32.07
2019-02-19T07:14:03.635Z,28.40
2019-02-19T07:16:32.948Z,35.27
2019-02-19T07:19:02.238Z,29.37
2019-02-19T07:21:31.539Z,31.83
2019-02-19T07:24:04.420Z,32.67
2019-02-19T07:26:31.839Z,31.43
2019-02-19T07:29:01.134Z,32.53
2019-02-19T07:31:30.439Z,34.63
2019-02-19T07:33:59.744Z,32.83
2019-02-19T07:36:29.077Z,38.60
2019-02-19T07:38:58.515Z,32.60
2019-02-19T07:41:27.802Z,36.17
2019-02-19T07:43:57.098Z,30.70
2019-02-19T07:46:26.403Z,33.73
2019-02-19T07:48:55.695Z,35.20
2019-02-19T07:51:25.073Z,39.77
2019-02-19T07:53:54.378Z,33.20
2019-02-19T07:56:23.687Z,41.87
2019-02-19T07:58:52.978Z,34.23
2019-02-19T08:01:22.298Z,34.43
2019-02-19T08:03:51.604Z,33.80
2019-02-19T08:06:22.150Z,34.47
2019-02-19T08:08:51.674Z,36.67
2019-02-19T08:11:20.985Z,32.43
2019-02-19T08:13:50.284Z,38.23
2019-02-19T08:16:19.590Z,31.23
2019-02-19T08:18:48.889Z,38.47
2019-02-19T08:21:19.163Z,31.33
2019-02-19T08:23:48.469Z,28.53
2019-02-19T08:26:18.754Z,34.87
2019-02-19T08:28:48.058Z,35.90
2019-02-19T08:31:17.426Z,32.80
2019-02-19T08:33:46.734Z,33.13
2019-02-19T08:36:16.027Z,32.30
2019-02-19T08:38:45.343Z,31.40
2019-02-19T08:41:14.639Z,29.50
2019-02-19T08:43:43.950Z,31.07
2019-02-19T08:46:13.248Z,27.23
2019-02-19T08:48:42.551Z,25.07
2019-02-19T08:51:11.861Z,27.67
2019-02-19T08:53:41.162Z,28.07
2019-02-19T08:56:10.464Z,29.10
2019-02-19T08:58:39.775Z,28.07
2019-02-19T09:01:09.075Z,22.00
2019-02-19T09:03:38.584Z,25.67
2019-02-19T09:06:07.979Z,25.20
2019-02-19T09:08:37.290Z,21.93
2019-02-19T09:11:06.586Z,26.07
2019-02-19T09:13:35.911Z,29.50
2019-02-19T09:16:05.388Z,25.77
2019-02-19T09:18:34.740Z,26.53
2019-02-19T09:21:05.155Z,27.20
2019-02-19T09:23:34.521Z,25.90
2019-02-19T09:26:03.888Z,22.53
2019-02-19T09:28:33.194Z,24.53
2019-02-19T09:31:02.492Z,20.53
2019-02-19T09:33:31.799Z,20.87
2019-02-19T09:36:01.662Z,26.20
2019-02-19T09:38:30.973Z,21.87
2019-02-19T09:41:00.264Z,25.23
2019-02-19T09:43:35.284Z,21.47
2019-02-19T09:46:00.571Z,22.53
2019-02-19T09:48:29.888Z,22.83
2019-02-19T09:50:59.180Z,23.70
2019-02-19T09:53:28.495Z,22.73
2019-02-19T09:55:57.795Z,23.60
2019-02-19T09:58:27.108Z,25.27
2019-02-19T10:00:56.407Z,17.80
2019-02-19T10:03:25.748Z,22.30
2019-02-19T10:05:55.052Z,23.97
2019-02-19T10:08:24.361Z,21.97
2019-02-19T10:10:53.660Z,24.40
2019-02-19T10:13:22.963Z,27.00
2019-02-19T10:15:52.262Z,21.07
2019-02-19T10:18:21.578Z,22.17
2019-02-19T10:20:51.883Z,20.27
2019-02-19T10:23:22.287Z,22.97
2019-02-19T10:25:51.588Z,25.07
2019-02-19T10:28:20.903Z,23.20
2019-02-19T10:30:50.202Z,24.40
2019-02-19T10:33:19.515Z,21.90
2019-02-19T10:35:48.811Z,20.57
2019-02-19T10:38:18.123Z,23.10
2019-02-19T10:40:47.430Z,32.20
2019-02-19T10:43:16.742Z,24.60
2019-02-19T10:45:46.102Z,23.30
2019-02-19T10:48:19.021Z,22.17
2019-02-19T10:50:46.439Z,25.57
2019-02-19T10:53:15.779Z,21.30
2019-02-19T10:55:45.078Z,23.57
2019-02-19T10:58:22.243Z,18.83
2019-02-19T11:00:46.279Z,23.97
2019-02-19T11:03:15.682Z,24.10
2019-02-19T11:05:44.999Z,25.57
2019-02-19T11:08:14.290Z,28.33
2019-02-19T11:10:43.608Z,24.30
2019-02-19T11:13:12.904Z,25.30
2019-02-19T11:15:42.214Z,27.83
2019-02-19T11:18:11.533Z,19.57
2019-02-19T11:20:40.839Z,23.53
2019-02-19T11:23:10.138Z,19.37
2019-02-19T11:25:39.457Z,21.03
2019-02-19T11:28:08.746Z,22.77
2019-02-19T11:30:38.054Z,19.73
2019-02-19T11:33:07.342Z,19.83
2019-02-19T11:35:36.648Z,20.43
2019-02-19T11:38:05.977Z,21.20
2019-02-19T11:40:35.286Z,20.60
2019-02-19T11:43:04.578Z,24.17
2019-02-19T11:45:33.986Z,25.43
2019-02-19T11:48:03.292Z,18.20
2019-02-19T11:50:32.601Z,22.17
2019-02-19T11:53:01.896Z,23.80
2019-02-19T11:55:31.205Z,22.87
2019-02-19T11:58:00.490Z,20.13
2019-02-19T12:00:43.213Z,29.70
2019-02-19T12:03:12.512Z,30.43
2019-02-19T12:05:41.814Z,21.07
2019-02-19T12:08:11.109Z,18.77
2019-02-19T12:10:40.434Z,27.07
2019-02-19T12:13:09.715Z,25.23
2019-02-19T12:15:39.024Z,19.90
2019-02-19T12:18:08.326Z,18.43
2019-02-19T12:20:38.609Z,22.87
2019-02-19T12:23:07.899Z,24.77
2019-02-19T12:25:37.211Z,21.77
2019-02-19T12:28:06.502Z,24.60
2019-02-19T12:30:35.815Z,23.90
2019-02-19T12:33:05.110Z,19.10
2019-02-19T12:35:34.419Z,23.43
2019-02-19T12:38:03.714Z,22.50
2019-02-19T12:40:33.023Z,22.10
2019-02-19T12:43:02.320Z,25.63
2019-02-19T12:45:31.618Z,23.87
2019-02-19T12:48:01.023Z,21.80
2019-02-19T12:50:30.327Z,22.47
2019-02-19T12:52:59.622Z,23.60
2019-02-19T12:55:28.936Z,31.27
2019-02-19T12:57:58.234Z,24.10
2019-02-19T13:00:27.547Z,18.70
2019-02-19T13:02:56.835Z,21.77
2019-02-19T13:05:26.147Z,17.33
2019-02-19T13:07:55.434Z,17.73
2019-02-19T13:10:24.747Z,20.73
2019-02-19T13:12:54.038Z,17.90
2019-02-19T13:15:23.347Z,20.47
2019-02-19T13:17:52.634Z,19.77
2019-02-19T13:20:22.922Z,17.33
2019-02-19T13:22:52.211Z,19.67
2019-02-19T13:25:21.529Z,19.90
2019-02-19T13:27:50.834Z,19.67
2019-02-19T13:30:21.472Z,21.30
2019-02-19T13:32:50.766Z,18.07
2019-02-19T13:35:20.062Z,18.70
2019-02-19T13:37:49.358Z,14.27
2019-02-19T13:40:19.486Z,19.40
2019-02-19T13:42:48.815Z,17.67
2019-02-19T13:45:18.159Z,21.63
2019-02-19T13:47:47.466Z,23.17
2019-02-19T13:50:19.826Z,17.80
2019-02-19T13:53:02.988Z,17.57
2019-02-19T13:55:33.932Z,17.50
2019-02-19T13:58:03.235Z,17.23
2019-02-19T14:00:34.172Z,19.73
2019-02-19T14:03:03.739Z,18.67
2019-02-19T14:05:33.038Z,16.80
2019-02-19T14:08:02.342Z,16.03
2019-02-19T14:10:31.634Z,18.63
2019-02-19T14:13:00.942Z,17.10
2019-02-19T14:15:37.549Z,17.00
2019-02-19T14:18:08.495Z,14.70
2019-02-19T14:20:39.427Z,11.23
2019-02-19T14:23:27.143Z,16.47
2019-02-19T14:26:10.033Z,16.20
2019-02-19T14:28:43.934Z,14.13
2019-02-19T14:31:17.750Z,9.50
2019-02-19T14:34:05.255Z,13.50
2019-02-19T14:36:52.390Z,10.03
2019-02-19T14:39:23.330Z,11.80
2019-02-19T14:41:54.282Z,9.03
2019-02-19T14:44:34.100Z,12.43
2019-02-19T14:47:21.522Z,14.80
2019-02-19T14:50:04.401Z,12.90
2019-02-19T14:52:51.706Z,11.27
2019-02-19T14:55:22.639Z,17.23
2019-02-19T14:58:05.226Z,14.43
2019-02-19T15:00:36.163Z,13.20
2019-02-19T15:03:10.030Z,14.03
2019-02-19T15:05:40.971Z,8.10
2019-02-19T15:08:24.140Z,12.07
2019-02-19T15:11:12.512Z,12.67
2019-02-19T15:13:43.455Z,11.70
2019-02-19T15:16:23.100Z,10.83
2019-02-19T15:19:00.199Z,11.07
2019-02-19T15:21:33.935Z,10.40
2019-02-19T15:24:13.980Z,12.63
2019-02-19T15:26:54.646Z,12.57
2019-02-19T15:29:41.621Z,10.27
2019-02-19T15:32:15.271Z,10.43
2019-02-19T15:34:49.337Z,14.50
2019-02-19T15:37:20.270Z,12.03
2019-02-19T15:39:51.483Z,20.90
2019-02-19T15:42:31.450Z,13.70
2019-02-19T15:45:05.326Z,14.13
2019-02-19T15:47:39.182Z,14.60
2019-02-19T15:50:26.846Z,17.47
2019-02-19T15:53:07.012Z,11.97
2019-02-19T15:55:52.867Z,20.63
2019-02-19T15:58:39.935Z,21.83
2019-02-19T16:01:13.759Z,21.50
2019-02-19T16:03:50.724Z,15.17
2019-02-19T16:06:27.609Z,13.90
2019-02-19T16:09:07.610Z,17.17
2019-02-19T16:11:39.617Z,16.67
2019-02-19T16:14:19.542Z,17.57
2019-02-19T16:16:53.146Z,20.93
2019-02-19T16:19:39.404Z,17.13
2019-02-19T16:22:22.504Z,16.23
2019-02-19T16:24:55.903Z,19.47
2019-02-19T16:27:32.509Z,22.80
2019-02-19T16:30:06.374Z,21.83
2019-02-19T16:32:55.437Z,33.97
2019-02-19T16:35:32.235Z,15.73
2019-02-19T16:38:15.399Z,22.27
2019-02-19T16:40:55.075Z,21.83
2019-02-19T16:43:31.707Z,17.73
2019-02-19T16:46:05.568Z,18.67
2019-02-19T16:48:39.258Z,20.23
2019-02-19T16:51:10.220Z,16.27
2019-02-19T16:53:44.071Z,19.37
2019-02-19T16:56:31.590Z,19.53
2019-02-19T16:59:07.355Z,17.70
2019-02-19T17:01:53.270Z,18.53
2019-02-19T17:04:24.269Z,18.83
2019-02-19T17:06:55.216Z,16.30
2019-02-19T17:09:31.855Z,23.43
2019-02-19T17:12:14.707Z,17.40
2019-02-19T17:15:00.904Z,22.03
2019-02-19T17:17:38.860Z,21.93
2019-02-19T17:20:28.315Z,18.17
2019-02-19T17:22:54.607Z,15.77
2019-02-19T17:25:31.503Z,25.77
2019-02-19T17:28:18.718Z,19.73
2019-02-19T17:31:05.823Z,16.30
2019-02-19T17:33:53.199Z,20.87
2019-02-19T17:36:27.245Z,17.70
2019-02-19T17:38:58.183Z,21.43
2019-02-19T17:41:29.120Z,21.27
2019-02-19T17:44:00.070Z,24.67
2019-02-19T17:46:39.948Z,19.90
2019-02-19T17:49:27.175Z,21.83
2019-02-19T17:52:07.334Z,22.97
2019-02-19T17:54:47.446Z,20.60
2019-02-19T17:57:27.407Z,23.33
2019-02-19T18:00:07.167Z,17.00
2019-02-19T18:02:38.110Z,21.63
2019-02-19T18:05:09.226Z,19.27
2019-02-19T18:07:49.224Z,21.60
2019-02-19T18:10:29.849Z,24.57
2019-02-19T18:13:00.789Z,20.10
2019-02-19T18:15:37.683Z,16.07
2019-02-19T18:18:24.945Z,19.53
2019-02-19T18:20:54.240Z,23.50
2019-02-19T18:23:23.535Z,17.13
2019-02-19T18:25:52.822Z,15.63
2019-02-19T18:28:22.125Z,14.13
2019-02-19T18:30:51.416Z,16.97
2019-02-19T18:33:20.735Z,16.27
2019-02-19T18:35:50.015Z,17.13
2019-02-19T18:38:19.310Z,16.77
2019-02-19T18:40:48.602Z,24.13
2019-02-19T18:43:17.902Z,21.30
2019-02-19T18:45:47.207Z,18.10
2019-02-19T18:48:16.511Z,23.27
2019-02-19T18:50:45.801Z,22.40
2019-02-19T18:53:15.104Z,18.57
2019-02-19T18:55:44.395Z,17.47
2019-02-19T18:58:13.699Z,20.30
2019-02-19T19:00:42.999Z,21.90
2019-02-19T19:03:12.297Z,21.47
2019-02-19T19:05:41.579Z,19.23
2019-02-19T19:08:10.888Z,19.23
2019-02-19T19:10:40.179Z,26.07
2019-02-19T19:13:09.474Z,20.60
2019-02-19T19:15:38.770Z,22.40
2019-02-19T19:18:08.073Z,27.03
2019-02-19T19:20:37.362Z,26.00
2019-02-19T19:23:06.683Z,27.43
2019-02-19T19:25:35.971Z,21.30
2019-02-19T19:28:05.267Z,24.37
2019-02-19T19:30:34.580Z,24.80
2019-02-19T19:33:03.883Z,17.47
2019-02-19T19:35:33.170Z,28.27
2019-02-19T19:38:02.484Z,26.97
2019-02-19T19:40:31.783Z,19.07
2019-02-19T19:43:01.078Z,16.20
2019-02-19T19:45:30.369Z,27.77
2019-02-19T19:47:59.679Z,28.40
2019-02-19T19:50:29.096Z,15.93
2019-02-19T19:52:58.486Z,20.23
2019-02-19T19:55:27.786Z,26.13
2019-02-19T19:57:57.084Z,23.57
2019-02-19T20:00:26.400Z,21.40
2019-02-19T20:02:55.686Z,27.87
2019-02-19T20:05:24.989Z,23.80
2019-02-19T20:07:54.288Z,26.93
2019-02-19T20:10:23.581Z,28.20
2019-02-19T20:12:52.870Z,29.20
2019-02-19T20:15:22.175Z,26.50
2019-02-19T20:17:51.471Z,24.47
2019-02-19T20:20:20.770Z,21.87
2019-02-19T20:22:50.077Z,25.17
2019-02-19T20:25:19.455Z,23.33
2019-02-19T20:27:48.742Z,19.63
2019-02-19T20:30:18.057Z,24.33
2019-02-19T20:32:47.343Z,19.93
2019-02-19T20:35:16.644Z,28.73
2019-02-19T20:37:53.686Z,23.97
2019-02-19T20:40:16.956Z,22.80
2019-02-19T20:42:46.246Z,24.73
2019-02-19T20:45:15.573Z,22.40
2019-02-19T20:47:44.935Z,33.50
2019-02-19T20:50:14.576Z,24.40
2019-02-19T20:52:43.866Z,27.43
2019-02-19T20:55:13.415Z,31.97
2019-02-19T20:57:42.707Z,26.23
2019-02-19T21:00:17.423Z,26.50
2019-02-19T21:02:48.341Z,28.10
2019-02-19T21:05:17.642Z,31.93
2019-02-19T21:07:46.946Z,28.40
2019-02-19T21:10:18.450Z,32.60
2019-02-19T21:12:47.749Z,33.83
2019-02-19T21:15:17.057Z,28.13
2019-02-19T21:17:46.358Z,27.03
2019-02-19T21:20:15.672Z,29.37
2019-02-19T21:22:45.139Z,29.67
2019-02-19T21:25:14.511Z,30.80
2019-02-19T21:27:43.811Z,24.27
2019-02-19T21:30:16.882Z,36.53
2019-02-19T21:32:46.222Z,31.50
2019-02-19T21:35:16.502Z,29.20
2019-02-19T21:37:45.953Z,34.23
2019-02-19T21:40:16.606Z,26.13
2019-02-19T21:42:45.898Z,38.40
2019-02-19T21:45:15.680Z,33.07
2019-02-19T21:47:44.979Z,29.17
2019-02-19T21:50:15.696Z,29.47
2019-02-19T21:52:45.366Z,32.30
2019-02-19T21:55:14.674Z,31.23
2019-02-19T21:57:43.988Z,31.13
2019-02-19T22:00:22.710Z,32.37
2019-02-19T22:02:53.179Z,36.93
2019-02-19T22:05:22.491Z,32.67
2019-02-19T22:07:51.782Z,30.77
2019-02-19T22:10:21.087Z,30.23
2019-02-19T22:12:50.667Z,32.20
2019-02-19T22:15:19.979Z,31.17
2019-02-19T22:17:49.266Z,34.93
2019-02-19T22:20:35.978Z,28.33
2019-02-19T22:23:05.440Z,32.87
2019-02-19T22:25:34.742Z,28.20
2019-02-19T22:28:04.202Z,33.87
2019-02-19T22:30:33.535Z,34.67
2019-02-19T22:33:02.886Z,39.67
2019-02-19T22:35:32.214Z,32.83
2019-02-19T22:38:01.515Z,28.13
2019-02-19T22:40:30.813Z,32.77
2019-02-19T22:43:01.095Z,28.33
2019-02-19T22:45:30.437Z,32.03
2019-02-19T22:48:00.056Z,39.87
2019-02-19T22:50:29.354Z,32.37
2019-02-19T22:52:58.662Z,35.10
2019-02-19T22:55:32.235Z,34.47
2019-02-19T22:58:01.547Z,33.60
2019-02-19T23:00:47.573Z,32.53
2019-02-19T23:03:24.661Z,32.13
2019-02-19T23:05:53.975Z,31.30
2019-02-19T23:08:23.274Z,33.33
2019-02-19T23:10:52.565Z,31.70
2019-02-19T23:13:21.878Z,30.37
2019-02-19T23:15:51.171Z,34.00
2019-02-19T23:18:20.485Z,32.33
2019-02-19T23:20:50.860Z,30.17
2019-02-19T23:23:20.160Z,31.37
2019-02-19T23:25:49.466Z,25.97
2019-02-19T23:28:19.328Z,26.60
2019-02-19T23:30:48.708Z,25.23
2019-02-19T23:33:18.027Z,28.47
2019-02-19T23:35:51.616Z,31.30
2019-02-19T23:38:22.058Z,26.70
2019-02-19T23:40:51.367Z,31.87
2019-02-19T23:43:20.743Z,31.73
2019-02-19T23:45:50.039Z,29.87
2019-02-19T23:48:19.357Z,27.33
2019-02-19T23:50:48.656Z,31.87
2019-02-19T23:53:17.982Z,31.03
2019-02-19T23:55:47.330Z,23.93
2019-02-19T23:58:16.647Z,24.60
